createdAt,value
2023-04-04T00:00:48.298Z,27.11
2023-04-04T00:01:50.398Z,27.10
2023-04-04T00:02:52.342Z,27.10
2023-04-04T00:03:54.496Z,27.11
2023-04-04T00:04:56.568Z,27.09
2023-04-04T00:05:58.390Z,27.10
2023-04-04T00:07:00.438Z,27.09
2023-04-04T00:08:06.107Z,27.08
2023-04-04T00:09:08.138Z,27.09
2023-04-04T00:10:10.343Z,27.09
2023-04-04T00:11:12.952Z,27.09
2023-04-04T00:12:16.200Z,27.07
2023-04-04T00:13:18.059Z,27.08
2023-04-04T00:14:20.095Z,27.03
2023-04-04T00:15:22.139Z,27.03
2023-04-04T00:16:24.158Z,27.04
2023-04-04T00:17:26.154Z,27.06
2023-04-04T00:18:28.035Z,27.05
2023-04-04T00:19:29.804Z,27.05
2023-04-04T00:20:32.054Z,27.03
2023-04-04T00:21:33.901Z,27.03
2023-04-04T00:22:35.788Z,27.03
2023-04-04T00:23:37.898Z,27.02
2023-04-04T00:24:40.536Z,27.04
2023-04-04T00:25:42.386Z,27.03
2023-04-04T00:26:44.218Z,27.02
2023-04-04T00:27:47.852Z,27.02
2023-04-04T00:28:49.611Z,27.01
2023-04-04T00:29:51.493Z,27.00
2023-04-04T00:30:53.396Z,27.01
2023-04-04T00:31:55.396Z,27.01
2023-04-04T00:32:58.234Z,27.00
2023-04-04T00:34:00.175Z,27.01
2023-04-04T00:35:02.232Z,27.00
2023-04-04T00:36:04.651Z,26.99
2023-04-04T00:37:07.457Z,27.02
2023-04-04T00:38:09.490Z,27.00
2023-04-04T00:39:11.475Z,27.00
2023-04-04T00:40:13.576Z,26.99
2023-04-04T00:41:16.759Z,26.99
2023-04-04T00:42:18.696Z,27.00
2023-04-04T00:43:20.604Z,26.98
2023-04-04T00:44:22.439Z,26.99
2023-04-04T00:45:24.564Z,26.96
2023-04-04T00:46:29.296Z,26.99
2023-04-04T00:47:34.125Z,26.98
2023-04-04T00:48:36.484Z,26.98
2023-04-04T00:49:38.312Z,26.96
2023-04-04T00:50:40.912Z,26.97
2023-04-04T00:51:42.954Z,26.97
2023-04-04T00:52:44.859Z,26.94
2023-04-04T00:53:48.243Z,26.94
2023-04-04T00:54:50.630Z,26.94
2023-04-04T00:55:52.533Z,26.94
2023-04-04T00:56:55.344Z,26.93
2023-04-04T00:57:59.641Z,26.93
2023-04-04T00:59:01.940Z,26.95
2023-04-04T01:00:06.501Z,26.94
2023-04-04T01:01:10.901Z,26.91
2023-04-04T01:02:12.826Z,26.92
2023-04-04T01:03:14.793Z,26.92
2023-04-04T01:04:17.096Z,26.91
2023-04-04T01:05:19.063Z,26.91
2023-04-04T01:06:21.477Z,26.90
2023-04-04T01:07:23.700Z,26.90
2023-04-04T01:08:29.656Z,26.91
2023-04-04T01:09:31.953Z,26.90
2023-04-04T01:10:34.758Z,26.90
2023-04-04T01:11:36.582Z,26.88
2023-04-04T01:12:39.468Z,26.89
2023-04-04T01:13:43.285Z,26.90
2023-04-04T01:14:45.097Z,26.88
2023-04-04T01:15:47.586Z,26.86
2023-04-04T01:16:53.188Z,26.90
2023-04-04T01:18:00.093Z,26.90
2023-04-04T01:19:06.643Z,26.85
2023-04-04T01:20:15.753Z,26.90
2023-04-04T01:21:21.665Z,26.86
2023-04-04T01:22:24.255Z,26.85
2023-04-04T01:23:49.770Z,26.92
2023-04-04T01:24:55.541Z,26.87
2023-04-04T01:26:03.618Z,26.89
2023-04-04T01:27:05.720Z,26.85
2023-04-04T01:28:07.615Z,26.83
2023-04-04T01:29:09.465Z,26.83
2023-04-04T01:30:13.946Z,26.81
2023-04-04T01:31:26.830Z,26.85
2023-04-04T01:32:57.473Z,26.88
2023-04-04T01:34:21.117Z,26.91
2023-04-04T01:36:38.721Z,26.99
2023-04-04T01:38:02.441Z,26.94
2023-04-04T01:39:21.278Z,26.86
2023-04-04T01:40:34.986Z,26.81
2023-04-04T01:41:37.810Z,26.77
2023-04-04T01:42:42.217Z,26.78
2023-04-04T01:43:47.590Z,26.78
2023-04-04T01:44:57.101Z,26.78
2023-04-04T01:46:02.724Z,26.74
2023-04-04T01:47:08.841Z,26.76
2023-04-04T01:48:11.297Z,26.71
2023-04-04T01:49:13.084Z,26.70
2023-04-04T01:50:16.226Z,26.72
2023-04-04T01:51:18.231Z,26.70
2023-04-04T01:52:20.029Z,26.70
2023-04-04T01:53:22.019Z,26.68
2023-04-04T01:54:24.102Z,26.70
2023-04-04T01:55:26.026Z,26.70
2023-04-04T01:56:27.907Z,26.69
2023-04-04T01:57:30.900Z,26.66
2023-04-04T01:58:32.727Z,26.68
2023-04-04T01:59:34.555Z,26.69
2023-04-04T02:00:36.374Z,26.67
2023-04-04T02:01:38.634Z,26.67
2023-04-04T02:02:40.610Z,26.66
2023-04-04T02:03:42.538Z,26.66
2023-04-04T02:04:44.406Z,26.68
2023-04-04T02:05:46.337Z,26.66
2023-04-04T02:06:48.163Z,26.65
2023-04-04T02:07:52.791Z,26.67
2023-04-04T02:08:56.132Z,26.67
2023-04-04T02:09:58.617Z,26.66
2023-04-04T02:11:00.654Z,26.65
2023-04-04T02:12:02.530Z,26.64
2023-04-04T02:13:04.380Z,26.65
2023-04-04T02:14:06.216Z,26.66
2023-04-04T02:15:08.846Z,26.63
2023-04-04T02:16:11.197Z,26.65
2023-04-04T02:17:12.986Z,26.63
2023-04-04T02:18:15.189Z,26.65
2023-04-04T02:19:17.112Z,26.63
2023-04-04T02:20:19.590Z,26.65
2023-04-04T02:21:21.437Z,26.63
2023-04-04T02:22:23.471Z,26.64
2023-04-04T02:23:25.669Z,26.64
2023-04-04T02:24:27.512Z,26.62
2023-04-04T02:25:29.520Z,26.63
2023-04-04T02:26:31.418Z,26.63
2023-04-04T02:27:33.215Z,26.63
2023-04-04T02:28:35.071Z,26.63
2023-04-04T02:29:37.263Z,26.62
2023-04-04T02:30:39.346Z,26.62
2023-04-04T02:31:41.344Z,26.59
2023-04-04T02:32:44.785Z,26.61
2023-04-04T02:33:46.577Z,26.61
2023-04-04T02:34:48.493Z,26.60
2023-04-04T02:35:50.398Z,26.60
2023-04-04T02:36:52.297Z,26.60
2023-04-04T02:37:54.097Z,26.60
2023-04-04T02:38:56.098Z,26.61
2023-04-04T02:39:58.047Z,26.58
2023-04-04T02:40:59.808Z,26.60
2023-04-04T02:42:01.555Z,26.56
2023-04-04T02:43:03.388Z,26.57
2023-04-04T02:44:05.262Z,26.58
2023-04-04T02:45:08.135Z,26.58
2023-04-04T02:46:20.561Z,26.58
2023-04-04T02:47:23.671Z,26.58
2023-04-04T02:48:25.821Z,26.57
2023-04-04T02:49:29.640Z,26.55
2023-04-04T02:50:31.448Z,26.56
2023-04-04T02:51:33.547Z,26.56
2023-04-04T02:52:35.453Z,26.57
2023-04-04T02:53:37.280Z,26.53
2023-04-04T02:54:39.063Z,26.54
2023-04-04T02:55:41.018Z,26.52
2023-04-04T02:56:42.800Z,26.54
2023-04-04T02:57:52.558Z,26.56
2023-04-04T02:58:54.428Z,26.54
2023-04-04T02:59:56.687Z,26.53
2023-04-04T03:00:58.586Z,26.54
2023-04-04T03:02:00.635Z,26.51
2023-04-04T03:03:02.755Z,26.54
2023-04-04T03:04:05.672Z,26.52
2023-04-04T03:05:08.080Z,26.51
2023-04-04T03:06:09.899Z,26.50
2023-04-04T03:07:12.622Z,26.51
2023-04-04T03:08:14.367Z,26.52
2023-04-04T03:09:17.234Z,26.50
2023-04-04T03:10:19.048Z,26.50
2023-04-04T03:11:21.509Z,26.48
2023-04-04T03:12:23.470Z,26.49
2023-04-04T03:13:25.240Z,26.49
2023-04-04T03:14:27.148Z,26.49
2023-04-04T03:15:29.072Z,26.48
2023-04-04T03:16:31.094Z,26.48
2023-04-04T03:17:33.205Z,26.47
2023-04-04T03:18:35.190Z,26.48
2023-04-04T03:19:37.079Z,26.44
2023-04-04T03:20:39.102Z,26.46
2023-04-04T03:21:41.122Z,26.48
2023-04-04T03:22:42.915Z,26.47
2023-04-04T03:23:44.825Z,26.45
2023-04-04T03:24:46.656Z,26.45
2023-04-04T03:25:48.455Z,26.46
2023-04-04T03:26:50.366Z,26.45
2023-04-04T03:27:52.394Z,26.42
2023-04-04T03:28:54.191Z,26.43
2023-04-04T03:29:56.002Z,26.44
2023-04-04T03:30:57.789Z,26.45
2023-04-04T03:31:59.750Z,26.44
2023-04-04T03:33:10.569Z,26.49
2023-04-04T03:34:12.604Z,26.45
2023-04-04T03:35:14.451Z,26.43
2023-04-04T03:36:16.710Z,26.44
2023-04-04T03:37:19.292Z,26.43
2023-04-04T03:38:21.067Z,26.43
2023-04-04T03:39:27.662Z,26.42
2023-04-04T03:40:29.855Z,26.42
2023-04-04T03:41:31.685Z,26.43
2023-04-04T03:42:34.844Z,26.43
2023-04-04T03:43:37.342Z,26.43
2023-04-04T03:44:42.669Z,26.25
2023-04-04T03:46:04.215Z,26.42
2023-04-04T03:47:06.107Z,26.39
2023-04-04T03:48:10.173Z,26.37
2023-04-04T03:49:12.084Z,26.40
2023-04-04T03:50:13.965Z,26.41
2023-04-04T03:51:23.233Z,26.42
2023-04-04T03:52:25.033Z,26.40
2023-04-04T03:53:28.333Z,26.37
2023-04-04T03:54:30.196Z,26.37
2023-04-04T03:55:33.954Z,26.38
2023-04-04T03:56:48.837Z,26.41
2023-04-04T03:57:53.895Z,26.40
2023-04-04T03:58:56.512Z,26.37
2023-04-04T03:59:58.590Z,26.36
2023-04-04T04:01:00.572Z,26.34
2023-04-04T04:02:03.098Z,26.34
2023-04-04T04:03:05.203Z,26.37
2023-04-04T04:04:07.231Z,26.36
2023-04-04T04:05:09.396Z,26.36
2023-04-04T04:06:11.734Z,26.36
2023-04-04T04:07:13.577Z,26.35
2023-04-04T04:08:15.837Z,26.34
2023-04-04T04:09:17.724Z,26.36
2023-04-04T04:10:55.935Z,26.49
2023-04-04T04:12:17.826Z,26.49
2023-04-04T04:13:34.979Z,26.42
2023-04-04T04:14:37.376Z,26.40
2023-04-04T04:15:39.277Z,26.37
2023-04-04T04:16:41.545Z,26.35
2023-04-04T04:17:44.569Z,26.38
2023-04-04T04:18:46.485Z,26.36
2023-04-04T04:19:58.841Z,26.35
2023-04-04T04:21:02.656Z,26.37
2023-04-04T04:22:04.493Z,26.35
2023-04-04T04:23:06.772Z,26.34
2023-04-04T04:24:12.125Z,26.34
2023-04-04T04:25:17.820Z,26.36
2023-04-04T04:26:19.787Z,26.34
2023-04-04T04:27:24.721Z,26.36
2023-04-04T04:28:33.985Z,26.36
2023-04-04T04:29:36.767Z,26.35
2023-04-04T04:30:38.880Z,26.33
2023-04-04T04:31:41.736Z,26.37
2023-04-04T04:32:44.746Z,26.35
2023-04-04T04:33:46.622Z,26.35
2023-04-04T04:34:49.026Z,26.36
2023-04-04T04:35:50.959Z,26.35
2023-04-04T04:36:54.370Z,26.35
2023-04-04T04:37:57.797Z,26.35
2023-04-04T04:38:59.689Z,26.34
2023-04-04T04:40:01.886Z,26.33
2023-04-04T04:41:05.135Z,26.34
2023-04-04T04:42:07.025Z,26.36
2023-04-04T04:43:08.850Z,26.35
2023-04-04T04:44:10.664Z,26.35
2023-04-04T04:45:12.717Z,26.35
2023-04-04T04:46:15.121Z,26.34
2023-04-04T04:47:16.956Z,26.34
2023-04-04T04:48:21.234Z,26.36
2023-04-04T04:49:23.071Z,26.35
2023-04-04T04:50:24.987Z,26.36
2023-04-04T04:51:27.335Z,26.34
2023-04-04T04:52:31.767Z,26.34
2023-04-04T04:53:34.151Z,26.35
2023-04-04T04:54:35.997Z,26.36
2023-04-04T04:55:38.006Z,26.34
2023-04-04T04:56:40.078Z,26.36
2023-04-04T04:57:42.607Z,26.34
2023-04-04T04:58:45.507Z,26.35
2023-04-04T04:59:47.981Z,26.35
2023-04-04T05:00:50.053Z,26.35
2023-04-04T05:01:51.989Z,26.37
2023-04-04T05:02:56.561Z,26.35
2023-04-04T05:03:59.051Z,26.34
2023-04-04T05:05:01.809Z,26.35
2023-04-04T05:06:03.958Z,26.36
2023-04-04T05:07:08.210Z,26.33
2023-04-04T05:08:10.338Z,26.34
2023-04-04T05:09:12.092Z,26.34
2023-04-04T05:10:14.065Z,26.34
2023-04-04T05:11:16.225Z,26.34
2023-04-04T05:12:18.897Z,26.33
2023-04-04T05:13:21.005Z,26.34
2023-04-04T05:14:22.935Z,26.33
2023-04-04T05:15:31.548Z,26.33
2023-04-04T05:16:33.590Z,26.33
2023-04-04T05:17:40.704Z,26.36
2023-04-04T05:18:42.557Z,26.34
2023-04-04T05:19:44.839Z,26.30
2023-04-04T05:20:54.736Z,26.34
2023-04-04T05:21:56.649Z,26.33
2023-04-04T05:22:58.534Z,26.32
2023-04-04T05:24:00.907Z,26.32
2023-04-04T05:25:03.306Z,26.32
2023-04-04T05:26:05.228Z,26.31
2023-04-04T05:27:07.002Z,26.32
2023-04-04T05:28:09.031Z,26.30
2023-04-04T05:29:11.257Z,26.30
2023-04-04T05:30:13.288Z,26.29
2023-04-04T05:31:15.084Z,26.31
2023-04-04T05:32:16.986Z,26.28
2023-04-04T05:33:18.819Z,26.29
2023-04-04T05:34:20.621Z,26.26
2023-04-04T05:35:22.724Z,26.29
2023-04-04T05:36:24.965Z,26.29
2023-04-04T05:37:27.633Z,26.30
2023-04-04T05:38:29.571Z,26.29
2023-04-04T05:39:32.599Z,26.28
2023-04-04T05:40:34.507Z,26.28
2023-04-04T05:41:36.544Z,26.28
2023-04-04T05:42:38.805Z,26.27
2023-04-04T05:43:42.887Z,26.28
2023-04-04T05:44:44.746Z,26.27
2023-04-04T05:45:46.640Z,26.27
2023-04-04T05:46:48.731Z,26.27
2023-04-04T05:47:50.645Z,26.27
2023-04-04T05:48:52.549Z,26.28
2023-04-04T05:49:54.422Z,26.25
2023-04-04T05:50:56.481Z,26.26
2023-04-04T05:51:58.363Z,26.25
2023-04-04T05:53:00.166Z,26.26
2023-04-04T05:54:01.956Z,26.25
2023-04-04T05:55:04.118Z,26.24
2023-04-04T05:56:06.260Z,26.26
2023-04-04T05:57:08.536Z,26.24
2023-04-04T05:58:11.797Z,26.25
2023-04-04T05:59:14.760Z,26.26
2023-04-04T06:00:18.268Z,26.24
2023-04-04T06:01:20.274Z,26.24
2023-04-04T06:02:22.193Z,26.27
2023-04-04T06:03:24.244Z,26.25
2023-04-04T06:04:26.154Z,26.25
2023-04-04T06:05:29.427Z,26.25
2023-04-04T06:06:31.340Z,26.24
2023-04-04T06:07:33.197Z,26.25
2023-04-04T06:08:50.170Z,26.26
2023-04-04T06:09:52.303Z,26.28
2023-04-04T06:10:55.972Z,26.25
2023-04-04T06:11:57.770Z,26.24
2023-04-04T06:13:00.235Z,26.24
2023-04-04T06:14:02.196Z,26.27
2023-04-04T06:15:04.499Z,26.27
2023-04-04T06:16:06.921Z,26.25
2023-04-04T06:17:08.821Z,26.25
2023-04-04T06:18:11.090Z,26.26
2023-04-04T06:19:13.680Z,26.27
2023-04-04T06:20:15.741Z,26.26
2023-04-04T06:21:17.525Z,26.25
2023-04-04T06:22:19.327Z,26.25
2023-04-04T06:23:21.307Z,26.25
2023-04-04T06:24:23.134Z,26.26
2023-04-04T06:25:26.886Z,26.25
2023-04-04T06:26:28.772Z,26.27
2023-04-04T06:27:30.617Z,26.26
2023-04-04T06:28:32.592Z,26.25
2023-04-04T06:29:34.592Z,26.24
2023-04-04T06:30:38.141Z,26.25
2023-04-04T06:31:40.702Z,26.25
2023-04-04T06:32:42.868Z,26.27
2023-04-04T06:33:44.674Z,26.25
2023-04-04T06:34:46.713Z,26.25
2023-04-04T06:35:48.574Z,26.26
2023-04-04T06:36:50.461Z,26.24
2023-04-04T06:37:56.025Z,26.27
2023-04-04T06:38:58.047Z,26.26
2023-04-04T06:39:59.827Z,26.24
2023-04-04T06:41:01.654Z,26.27
2023-04-04T06:42:03.630Z,26.25
2023-04-04T06:43:05.564Z,26.26
2023-04-04T06:44:07.509Z,26.27
2023-04-04T06:45:09.673Z,26.25
2023-04-04T06:46:11.610Z,26.27
2023-04-04T06:47:14.656Z,26.27
2023-04-04T06:48:16.856Z,26.28
2023-04-04T06:49:18.901Z,26.29
2023-04-04T06:50:22.909Z,26.28
2023-04-04T06:51:25.293Z,26.28
2023-04-04T06:52:27.366Z,26.29
2023-04-04T06:53:30.301Z,26.29
2023-04-04T06:54:32.302Z,26.31
2023-04-04T06:55:35.068Z,26.29
2023-04-04T06:56:39.850Z,26.29
2023-04-04T06:57:42.039Z,26.33
2023-04-04T06:58:44.227Z,26.31
2023-04-04T06:59:46.089Z,26.30
2023-04-04T07:00:47.901Z,26.30
2023-04-04T07:01:49.783Z,26.34
2023-04-04T07:02:59.324Z,26.36
2023-04-04T07:04:01.384Z,26.36
2023-04-04T07:05:04.537Z,26.36
2023-04-04T07:06:06.430Z,26.34
2023-04-04T07:07:08.332Z,26.35
2023-04-04T07:08:10.888Z,26.35
2023-04-04T07:09:21.922Z,26.34
2023-04-04T07:10:30.569Z,26.39
2023-04-04T07:11:32.324Z,26.38
2023-04-04T07:12:34.484Z,26.37
2023-04-04T07:13:36.744Z,26.38
2023-04-04T07:14:39.864Z,26.38
2023-04-04T07:15:48.667Z,26.22
2023-04-04T07:16:52.329Z,26.32
2023-04-04T07:17:55.124Z,26.37
2023-04-04T07:18:56.969Z,26.38
2023-04-04T07:20:00.954Z,26.40
2023-04-04T07:21:07.185Z,26.42
2023-04-04T07:22:08.940Z,26.43
2023-04-04T07:23:13.566Z,26.43
2023-04-04T07:24:15.620Z,26.44
2023-04-04T07:25:17.518Z,26.43
2023-04-04T07:26:21.309Z,26.45
2023-04-04T07:27:23.062Z,26.46
2023-04-04T07:28:24.820Z,26.47
2023-04-04T07:29:26.702Z,26.47
2023-04-04T07:30:30.180Z,26.49
2023-04-04T07:31:32.659Z,26.49
2023-04-04T07:32:34.483Z,26.49
2023-04-04T07:33:37.580Z,26.51
2023-04-04T07:34:39.443Z,26.51
2023-04-04T07:35:41.260Z,26.52
2023-04-04T07:36:43.433Z,26.52
2023-04-04T07:37:45.776Z,26.54
2023-04-04T07:38:48.157Z,26.53
2023-04-04T07:39:50.034Z,26.54
2023-04-04T07:40:51.902Z,26.54
2023-04-04T07:41:54.121Z,26.54
2023-04-04T07:42:56.174Z,26.56
2023-04-04T07:43:57.976Z,26.54
2023-04-04T07:44:59.751Z,26.56
2023-04-04T07:46:01.929Z,26.58
2023-04-04T07:47:10.094Z,26.58
2023-04-04T07:48:12.305Z,26.59
2023-04-04T07:49:14.082Z,26.60
2023-04-04T07:50:16.823Z,26.59
2023-04-04T07:51:20.701Z,26.61
2023-04-04T07:52:22.511Z,26.62
2023-04-04T07:53:24.280Z,26.63
2023-04-04T07:54:27.720Z,26.61
2023-04-04T07:55:29.747Z,26.64
2023-04-04T07:56:31.643Z,26.66
2023-04-04T07:57:38.018Z,26.68
2023-04-04T07:58:39.873Z,26.67
2023-04-04T07:59:41.690Z,26.68
2023-04-04T08:00:43.451Z,26.68
2023-04-04T08:01:46.321Z,26.68
2023-04-04T08:02:59.056Z,26.75
2023-04-04T08:04:01.352Z,26.70
2023-04-04T08:05:04.136Z,26.70
2023-04-04T08:06:06.202Z,26.72
2023-04-04T08:07:08.081Z,26.72
2023-04-04T08:08:09.936Z,26.73
2023-04-04T08:09:11.851Z,26.72
2023-04-04T08:10:17.403Z,26.72
2023-04-04T08:11:19.218Z,26.75
2023-04-04T08:12:21.156Z,26.76
2023-04-04T08:13:23.225Z,26.76
2023-04-04T08:14:25.127Z,26.77
2023-04-04T08:15:27.416Z,26.77
2023-04-04T08:16:29.352Z,26.78
2023-04-04T08:17:31.317Z,26.79
2023-04-04T08:18:33.495Z,26.79
2023-04-04T08:19:35.485Z,26.79
2023-04-04T08:20:37.824Z,26.81
2023-04-04T08:21:39.920Z,26.82
2023-04-04T08:22:42.911Z,26.82
2023-04-04T08:23:45.346Z,26.79
2023-04-04T08:24:47.178Z,26.80
2023-04-04T08:25:49.085Z,26.82
2023-04-04T08:26:58.261Z,26.83
2023-04-04T08:28:06.857Z,26.86
2023-04-04T08:29:08.867Z,26.85
2023-04-04T08:30:15.399Z,26.86
2023-04-04T08:31:17.420Z,26.88
2023-04-04T08:32:19.242Z,26.87
2023-04-04T08:33:29.047Z,26.89
2023-04-04T08:34:36.364Z,26.90
2023-04-04T08:35:38.285Z,26.91
2023-04-04T08:36:40.989Z,26.91
2023-04-04T08:37:46.417Z,26.93
2023-04-04T08:38:48.615Z,26.93
2023-04-04T08:39:50.521Z,26.92
2023-04-04T08:40:53.532Z,26.92
2023-04-04T08:42:06.555Z,27.00
2023-04-04T08:43:10.418Z,26.95
2023-04-04T08:44:22.831Z,27.01
2023-04-04T08:45:28.050Z,26.98
2023-04-04T08:46:31.251Z,26.97
2023-04-04T08:47:36.222Z,26.99
2023-04-04T08:48:43.189Z,27.00
2023-04-04T08:49:49.457Z,27.01
2023-04-04T08:50:51.568Z,26.98
2023-04-04T08:51:57.237Z,27.02
2023-04-04T08:53:01.530Z,26.98
2023-04-04T08:54:04.120Z,27.01
2023-04-04T08:55:06.968Z,27.03
2023-04-04T08:56:10.098Z,26.78
2023-04-04T08:57:12.474Z,26.90
2023-04-04T08:58:14.867Z,26.97
2023-04-04T08:59:18.785Z,27.00
2023-04-04T09:00:22.758Z,27.01
2023-04-04T09:01:24.648Z,27.00
2023-04-04T09:02:33.254Z,27.06
2023-04-04T09:03:37.621Z,27.03
2023-04-04T09:04:41.941Z,27.05
2023-04-04T09:05:45.246Z,27.04
2023-04-04T09:06:48.321Z,27.03
2023-04-04T09:07:52.145Z,27.04
2023-04-04T09:08:54.577Z,27.04
2023-04-04T09:09:58.230Z,27.05
2023-04-04T09:11:03.713Z,27.07
2023-04-04T09:12:06.873Z,27.07
2023-04-04T09:13:15.551Z,27.06
2023-04-04T09:14:21.290Z,27.07
2023-04-04T09:15:23.395Z,27.05
2023-04-04T09:16:27.321Z,27.07
2023-04-04T09:17:29.898Z,27.06
2023-04-04T09:18:31.959Z,27.06
2023-04-04T09:19:34.082Z,27.07
2023-04-04T09:20:44.907Z,27.13
2023-04-04T09:21:51.262Z,27.10
2023-04-04T09:22:53.003Z,27.11
2023-04-04T09:24:02.297Z,27.13
2023-04-04T09:25:08.655Z,27.12
2023-04-04T09:26:12.301Z,27.10
2023-04-04T09:27:16.491Z,27.10
2023-04-04T09:28:19.891Z,27.11
2023-04-04T09:29:22.191Z,27.11
2023-04-04T09:30:25.083Z,27.11
2023-04-04T09:31:27.151Z,27.13
2023-04-04T09:32:29.263Z,27.11
2023-04-04T09:33:33.537Z,27.13
2023-04-04T09:34:36.508Z,27.13
2023-04-04T09:35:41.601Z,27.17
2023-04-04T09:36:45.831Z,27.17
2023-04-04T09:37:48.002Z,27.17
2023-04-04T09:38:54.443Z,27.22
2023-04-04T09:39:57.057Z,27.22
2023-04-04T09:40:59.079Z,27.23
2023-04-04T09:42:01.635Z,27.20
2023-04-04T09:43:07.899Z,27.24
2023-04-04T09:44:13.336Z,27.24
2023-04-04T09:45:22.373Z,27.25
2023-04-04T09:46:32.084Z,27.27
2023-04-04T09:47:33.997Z,27.25
2023-04-04T09:48:37.394Z,27.26
2023-04-04T09:49:40.129Z,27.25
2023-04-04T09:50:48.117Z,27.31
2023-04-04T09:51:56.723Z,27.31
2023-04-04T09:53:00.024Z,27.29
2023-04-04T09:54:03.020Z,27.30
2023-04-04T09:55:06.644Z,27.30
2023-04-04T09:56:09.183Z,27.30
2023-04-04T09:57:11.500Z,27.29
2023-04-04T09:58:16.977Z,27.32
2023-04-04T09:59:18.938Z,27.30
2023-04-04T10:00:21.114Z,27.32
2023-04-04T10:01:24.926Z,27.33
2023-04-04T10:02:30.274Z,27.33
2023-04-04T10:03:32.242Z,27.34
2023-04-04T10:04:35.829Z,27.32
2023-04-04T10:05:37.799Z,27.33
2023-04-04T10:06:39.757Z,27.35
2023-04-04T10:07:44.829Z,27.34
2023-04-04T10:08:47.550Z,27.35
2023-04-04T10:09:52.703Z,27.37
2023-04-04T10:11:11.921Z,27.40
2023-04-04T10:12:14.727Z,27.40
2023-04-04T10:13:31.369Z,27.44
2023-04-04T10:14:37.140Z,27.43
2023-04-04T10:15:39.182Z,27.40
2023-04-04T10:16:45.605Z,27.43
2023-04-04T10:17:49.628Z,27.41
2023-04-04T10:18:52.527Z,27.40
2023-04-04T10:19:55.081Z,27.38
2023-04-04T10:21:12.024Z,27.42
2023-04-04T10:22:20.402Z,27.43
2023-04-04T10:23:25.176Z,27.44
2023-04-04T10:24:27.106Z,27.45
2023-04-04T10:25:30.804Z,27.21
2023-04-04T10:26:32.654Z,27.35
2023-04-04T10:27:35.318Z,27.42
2023-04-04T10:28:37.661Z,27.44
2023-04-04T10:29:39.505Z,27.47
2023-04-04T10:31:03.185Z,27.49
2023-04-04T10:32:16.704Z,27.55
2023-04-04T10:34:04.621Z,27.70
2023-04-04T10:35:12.415Z,27.57
2023-04-04T10:36:18.135Z,27.56
2023-04-04T10:37:34.080Z,27.59
2023-04-04T10:38:43.724Z,27.59
2023-04-04T10:40:26.151Z,27.72
2023-04-04T10:41:32.693Z,27.60
2023-04-04T10:42:44.175Z,27.59
2023-04-04T10:43:49.655Z,27.57
2023-04-04T10:44:51.675Z,27.57
2023-04-04T10:45:55.478Z,27.56
2023-04-04T10:47:04.295Z,27.59
2023-04-04T10:48:10.231Z,27.60
2023-04-04T10:49:13.389Z,27.58
2023-04-04T10:50:15.740Z,27.58
2023-04-04T10:51:17.982Z,27.59
2023-04-04T10:52:23.545Z,27.60
2023-04-04T10:53:27.037Z,27.61
2023-04-04T10:54:30.231Z,27.59
2023-04-04T10:55:33.661Z,27.61
2023-04-04T10:56:36.763Z,27.63
2023-04-04T10:57:47.483Z,27.66
2023-04-04T10:58:49.985Z,27.64
2023-04-04T11:00:09.934Z,27.71
2023-04-04T11:01:16.394Z,27.67
2023-04-04T11:02:18.818Z,27.65
2023-04-04T11:03:21.243Z,27.64
2023-04-04T11:04:39.162Z,27.73
2023-04-04T11:05:43.396Z,27.68
2023-04-04T11:07:10.253Z,27.79
2023-04-04T11:08:17.082Z,27.72
2023-04-04T11:09:47.080Z,27.82
2023-04-04T11:10:51.081Z,27.70
2023-04-04T11:12:10.620Z,27.78
2023-04-04T11:13:26.437Z,27.77
2023-04-04T11:14:31.805Z,27.73
2023-04-04T11:16:07.338Z,27.86
2023-04-04T11:17:09.870Z,27.73
2023-04-04T11:18:30.121Z,27.71
2023-04-04T11:19:34.307Z,27.75
2023-04-04T11:20:38.921Z,27.71
2023-04-04T11:21:41.588Z,27.72
2023-04-04T11:22:43.842Z,27.75
2023-04-04T11:23:48.644Z,27.75
2023-04-04T11:25:01.436Z,27.77
2023-04-04T11:26:03.568Z,27.74
2023-04-04T11:27:07.912Z,27.76
2023-04-04T11:28:28.046Z,27.78
2023-04-04T11:29:52.424Z,27.88
2023-04-04T11:31:20.352Z,27.92
2023-04-04T11:32:52.951Z,27.90
2023-04-04T11:34:08.000Z,27.84
2023-04-04T11:35:10.348Z,27.78
2023-04-04T11:36:45.751Z,27.84
2023-04-04T11:37:56.954Z,27.89
2023-04-04T11:38:59.952Z,27.81
2023-04-04T11:40:15.931Z,27.86
2023-04-04T11:41:20.494Z,27.84
2023-04-04T11:42:27.693Z,27.80
2023-04-04T11:43:36.564Z,27.84
2023-04-04T11:44:54.886Z,27.91
2023-04-04T11:46:08.131Z,27.89
2023-04-04T11:47:12.135Z,27.85
2023-04-04T11:48:19.888Z,27.88
2023-04-04T11:49:29.681Z,27.89
2023-04-04T11:50:42.299Z,27.91
2023-04-04T11:51:45.814Z,27.87
2023-04-04T11:52:47.684Z,27.85
2023-04-04T11:53:49.490Z,27.85
2023-04-04T11:54:52.517Z,27.85
2023-04-04T11:55:56.506Z,27.86
2023-04-04T11:56:58.900Z,27.86
2023-04-04T11:58:13.521Z,27.92
2023-04-04T11:59:21.087Z,27.93
2023-04-04T12:00:39.819Z,27.94
2023-04-04T12:01:41.769Z,27.90
2023-04-04T12:02:44.396Z,27.91
2023-04-04T12:03:48.854Z,27.92
2023-04-04T12:04:52.448Z,27.69
2023-04-04T12:05:54.410Z,27.81
2023-04-04T12:06:56.813Z,27.86
2023-04-04T12:08:01.840Z,27.87
2023-04-04T12:09:05.703Z,27.83
2023-04-04T12:10:09.038Z,27.88
2023-04-04T12:11:16.340Z,27.94
2023-04-04T12:12:18.412Z,27.93
2023-04-04T12:13:20.234Z,27.73
2023-04-04T12:14:24.175Z,27.87
2023-04-04T12:15:29.642Z,27.94
2023-04-04T12:16:31.572Z,27.94
2023-04-04T12:17:34.569Z,27.96
2023-04-04T12:18:37.351Z,27.96
2023-04-04T12:19:41.274Z,27.98
2023-04-04T12:20:48.839Z,28.05
2023-04-04T12:21:53.364Z,28.02
2023-04-04T12:22:55.152Z,28.01
2023-04-04T12:23:57.627Z,28.01
2023-04-04T12:24:59.567Z,27.99
2023-04-04T12:26:03.976Z,28.00
2023-04-04T12:27:06.704Z,28.02
2023-04-04T12:28:09.202Z,28.01
2023-04-04T12:29:13.754Z,27.85
2023-04-04T12:30:17.779Z,27.95
2023-04-04T12:31:19.969Z,27.99
2023-04-04T12:32:23.190Z,28.02
2023-04-04T12:33:25.816Z,28.02
2023-04-04T12:34:34.424Z,28.07
2023-04-04T12:35:37.712Z,28.07
2023-04-04T12:36:41.298Z,28.00
2023-04-04T12:38:10.734Z,28.15
2023-04-04T12:39:13.918Z,28.09
2023-04-04T12:40:15.752Z,28.09
2023-04-04T12:41:19.516Z,28.08
2023-04-04T12:42:25.968Z,28.08
2023-04-04T12:43:29.945Z,28.08
2023-04-04T12:44:37.725Z,28.09
2023-04-04T12:45:41.020Z,28.08
2023-04-04T12:46:44.835Z,28.06
2023-04-04T12:47:56.971Z,28.11
2023-04-04T12:48:59.845Z,28.08
2023-04-04T12:50:04.586Z,27.92
2023-04-04T12:51:08.981Z,28.02
2023-04-04T12:52:32.007Z,28.14
2023-04-04T12:53:34.047Z,28.09
2023-04-04T12:54:39.957Z,27.94
2023-04-04T12:55:47.959Z,28.07
2023-04-04T12:56:58.392Z,28.11
2023-04-04T12:58:02.561Z,28.11
2023-04-04T12:59:08.275Z,28.12
2023-04-04T13:00:14.294Z,28.13
2023-04-04T13:01:21.999Z,28.11
2023-04-04T13:02:24.839Z,28.12
2023-04-04T13:03:29.369Z,28.12
2023-04-04T13:04:33.342Z,28.12
2023-04-04T13:05:36.735Z,28.09
2023-04-04T13:06:39.450Z,28.11
2023-04-04T13:07:44.503Z,28.12
2023-04-04T13:08:54.410Z,28.15
2023-04-04T13:10:05.514Z,28.14
2023-04-04T13:11:07.708Z,28.12
2023-04-04T13:12:09.758Z,28.09
2023-04-04T13:13:40.709Z,28.19
2023-04-04T13:15:07.142Z,28.24
2023-04-04T13:16:11.573Z,28.13
2023-04-04T13:17:14.211Z,28.11
2023-04-04T13:18:29.599Z,28.14
2023-04-04T13:19:32.014Z,28.10
2023-04-04T13:20:34.091Z,28.09
2023-04-04T13:21:38.306Z,28.07
2023-04-04T13:22:41.842Z,28.07
2023-04-04T13:23:44.052Z,28.09
2023-04-04T13:24:47.168Z,28.08
2023-04-04T13:25:53.118Z,28.08
2023-04-04T13:26:54.889Z,28.08
2023-04-04T13:27:56.820Z,28.09
2023-04-04T13:28:58.775Z,28.09
2023-04-04T13:30:02.735Z,28.08
2023-04-04T13:31:10.188Z,28.09
2023-04-04T13:32:13.156Z,28.09
2023-04-04T13:33:27.001Z,28.15
2023-04-04T13:34:28.934Z,28.10
2023-04-04T13:35:34.197Z,28.10
2023-04-04T13:36:36.132Z,28.10
2023-04-04T13:37:39.639Z,28.09
2023-04-04T13:38:41.605Z,28.10
2023-04-04T13:39:43.632Z,28.08
2023-04-04T13:40:45.838Z,28.09
2023-04-04T13:41:47.779Z,28.11
2023-04-04T13:42:51.018Z,28.10
2023-04-04T13:43:52.912Z,28.11
2023-04-04T13:44:56.237Z,28.12
2023-04-04T13:45:58.165Z,28.11
2023-04-04T13:47:00.042Z,28.14
2023-04-04T13:48:03.941Z,28.12
2023-04-04T13:49:05.983Z,28.12
2023-04-04T13:50:08.579Z,28.13
2023-04-04T13:51:10.633Z,28.11